sensor_id;sensor_type;location;lat;lon;timestamp;P1;durP1;ratioP1;P2;durP2;ratioP2
4089;SDS011;2059;48.538;12.146;2023-03-01T00:03:56;25.83;;;18.30;;
4089;SDS011;2059;48.538;12.146;2023-03-01T00:08:58;26.30;;;19.23;;
4089;SDS011;2059;48.538;12.146;2023-03-01T00:14:02;22.13;;;16.23;;
4089;SDS011;2059;48.538;12.146;2023-03-01T00:19:07;21.67;;;17.00;;
4089;SDS011;2059;48.538;12.146;2023-03-01T00:24:12;22.93;;;16.57;;
4089;SDS011;2059;48.538;12.146;2023-03-01T00:29:15;21.10;;;15.97;;
4089;SDS011;2059;48.538;12.146;2023-03-01T00:34:17;21.00;;;15.47;;
4089;SDS011;2059;48.538;12.146;2023-03-01T00:39:19;17.23;;;14.07;;
4089;SDS011;2059;48.538;12.146;2023-03-01T00:44:22;16.43;;;13.43;;
4089;SDS011;2059;48.538;12.146;2023-03-01T00:49:24;23.00;;;15.03;;
4089;SDS011;2059;48.538;12.146;2023-03-01T00:54:27;19.20;;;15.00;;
4089;SDS011;2059;48.538;12.146;2023-03-01T00:59:30;20.03;;;15.07;;
4089;SDS011;2059;48.538;12.146;2023-03-01T01:04:32;18.90;;;15.73;;
4089;SDS011;2059;48.538;12.146;2023-03-01T01:09:34;20.40;;;15.40;;
4089;SDS011;2059;48.538;12.146;2023-03-01T01:14:38;19.33;;;15.60;;
4089;SDS011;2059;48.538;12.146;2023-03-01T01:19:39;19.87;;;15.30;;
4089;SDS011;2059;48.538;12.146;2023-03-01T01:24:41;20.67;;;15.67;;
4089;SDS011;2059;48.538;12.146;2023-03-01T01:29:45;19.77;;;14.20;;
4089;SDS011;2059;48.538;12.146;2023-03-01T01:34:47;16.77;;;14.00;;
4089;SDS011;2059;48.538;12.146;2023-03-01T01:39:48;17.47;;;14.70;;
4089;SDS011;2059;48.538;12.146;2023-03-01T01:50:28;17.83;;;14.93;;
4089;SDS011;2059;48.538;12.146;2023-03-01T01:55:39;21.80;;;16.27;;
4089;SDS011;2059;48.538;12.146;2023-03-01T02:00:45;19.23;;;16.00;;
4089;SDS011;2059;48.538;12.146;2023-03-01T02:05:47;25.13;;;19.00;;
4089;SDS011;2059;48.538;12.146;2023-03-01T02:10:54;28.27;;;19.50;;
4089;SDS011;2059;48.538;12.146;2023-03-01T02:15:59;28.03;;;21.70;;
4089;SDS011;2059;48.538;12.146;2023-03-01T02:21:05;29.23;;;22.00;;
4089;SDS011;2059;48.538;12.146;2023-03-01T02:26:20;31.90;;;23.30;;
4089;SDS011;2059;48.538;12.146;2023-03-01T02:31:29;36.20;;;22.70;;
4089;SDS011;2059;48.538;12.146;2023-03-01T02:36:43;26.80;;;20.70;;
4089;SDS011;2059;48.538;12.146;2023-03-01T02:41:49;27.50;;;19.73;;
4089;SDS011;2059;48.538;12.146;2023-03-01T02:46:55;25.00;;;19.03;;
4089;SDS011;2059;48.538;12.146;2023-03-01T02:52:10;23.50;;;17.17;;
4089;SDS011;2059;48.538;12.146;2023-03-01T02:57:25;21.97;;;15.20;;
4089;SDS011;2059;48.538;12.146;2023-03-01T03:02:30;19.10;;;14.93;;
4089;SDS011;2059;48.538;12.146;2023-03-01T03:07:38;21.37;;;16.37;;
4089;SDS011;2059;48.538;12.146;2023-03-01T03:12:41;19.90;;;15.93;;
4089;SDS011;2059;48.538;12.146;2023-03-01T03:17:45;19.20;;;15.93;;
4089;SDS011;2059;48.538;12.146;2023-03-01T03:22:48;23.50;;;17.47;;
4089;SDS011;2059;48.538;12.146;2023-03-01T03:27:52;28.37;;;20.10;;
4089;SDS011;2059;48.538;12.146;2023-03-01T03:32:59;26.80;;;18.60;;
4089;SDS011;2059;48.538;12.146;2023-03-01T03:38:03;29.00;;;21.80;;
4089;SDS011;2059;48.538;12.146;2023-03-01T03:43:10;31.73;;;23.53;;
4089;SDS011;2059;48.538;12.146;2023-03-01T03:48:15;32.07;;;22.47;;
4089;SDS011;2059;48.538;12.146;2023-03-01T03:53:17;26.90;;;20.13;;
4089;SDS011;2059;48.538;12.146;2023-03-01T03:58:21;23.83;;;18.33;;
4089;SDS011;2059;48.538;12.146;2023-03-01T04:03:26;22.10;;;15.90;;
4089;SDS011;2059;48.538;12.146;2023-03-01T04:08:28;24.93;;;17.53;;
4089;SDS011;2059;48.538;12.146;2023-03-01T04:13:30;26.90;;;19.37;;
4089;SDS011;2059;48.538;12.146;2023-03-01T04:18:33;28.07;;;19.00;;
4089;SDS011;2059;48.538;12.146;2023-03-01T04:23:35;28.57;;;20.47;;
4089;SDS011;2059;48.538;12.146;2023-03-01T04:28:38;27.57;;;20.30;;
4089;SDS011;2059;48.538;12.146;2023-03-01T04:33:45;25.53;;;18.70;;
4089;SDS011;2059;48.538;12.146;2023-03-01T04:38:47;22.67;;;16.60;;
4089;SDS011;2059;48.538;12.146;2023-03-01T04:43:49;23.07;;;18.30;;
4089;SDS011;2059;48.538;12.146;2023-03-01T04:48:53;21.93;;;16.73;;
4089;SDS011;2059;48.538;12.146;2023-03-01T04:53:55;25.30;;;17.83;;
4089;SDS011;2059;48.538;12.146;2023-03-01T04:58:56;19.90;;;15.53;;
4089;SDS011;2059;48.538;12.146;2023-03-01T05:04:00;25.40;;;16.73;;
4089;SDS011;2059;48.538;12.146;2023-03-01T05:09:03;23.90;;;17.80;;
4089;SDS011;2059;48.538;12.146;2023-03-01T05:14:05;24.63;;;19.77;;
4089;SDS011;2059;48.538;12.146;2023-03-01T05:19:09;30.00;;;20.70;;
4089;SDS011;2059;48.538;12.146;2023-03-01T05:24:15;31.70;;;21.37;;
4089;SDS011;2059;48.538;12.146;2023-03-01T05:29:17;27.80;;;21.10;;
4089;SDS011;2059;48.538;12.146;2023-03-01T05:34:27;27.33;;;18.80;;
4089;SDS011;2059;48.538;12.146;2023-03-01T05:39:29;21.60;;;16.47;;
4089;SDS011;2059;48.538;12.146;2023-03-01T05:44:31;23.90;;;16.83;;
4089;SDS011;2059;48.538;12.146;2023-03-01T05:49:34;23.57;;;16.53;;
4089;SDS011;2059;48.538;12.146;2023-03-01T05:54:37;25.80;;;18.83;;
4089;SDS011;2059;48.538;12.146;2023-03-01T05:59:38;26.57;;;19.47;;
4089;SDS011;2059;48.538;12.146;2023-03-01T06:04:42;28.23;;;20.40;;
4089;SDS011;2059;48.538;12.146;2023-03-01T06:09:43;22.80;;;17.70;;
4089;SDS011;2059;48.538;12.146;2023-03-01T06:14:45;25.40;;;18.10;;
4089;SDS011;2059;48.538;12.146;2023-03-01T06:19:49;29.17;;;20.77;;
4089;SDS011;2059;48.538;12.146;2023-03-01T06:24:51;27.77;;;20.07;;
4089;SDS011;2059;48.538;12.146;2023-03-01T06:29:53;25.33;;;18.70;;
4089;SDS011;2059;48.538;12.146;2023-03-01T06:34:56;26.53;;;19.03;;
4089;SDS011;2059;48.538;12.146;2023-03-01T06:39:59;24.17;;;17.20;;
4089;SDS011;2059;48.538;12.146;2023-03-01T06:45:05;23.03;;;18.37;;
4089;SDS011;2059;48.538;12.146;2023-03-01T06:50:10;24.97;;;16.83;;
4089;SDS011;2059;48.538;12.146;2023-03-01T06:55:12;25.53;;;18.60;;
4089;SDS011;2059;48.538;12.146;2023-03-01T07:00:15;28.43;;;20.07;;
4089;SDS011;2059;48.538;12.146;2023-03-01T07:05:19;26.33;;;18.63;;
4089;SDS011;2059;48.538;12.146;2023-03-01T07:10:21;34.97;;;20.50;;
4089;SDS011;2059;48.538;12.146;2023-03-01T07:15:23;29.00;;;19.67;;
4089;SDS011;2059;48.538;12.146;2023-03-01T07:20:27;27.40;;;19.67;;
4089;SDS011;2059;48.538;12.146;2023-03-01T07:25:28;30.80;;;20.80;;
4089;SDS011;2059;48.538;12.146;2023-03-01T07:30:30;26.30;;;18.80;;
4089;SDS011;2059;48.538;12.146;2023-03-01T07:35:33;28.83;;;20.77;;
4089;SDS011;2059;48.538;12.146;2023-03-01T07:40:35;28.90;;;20.57;;
4089;SDS011;2059;48.538;12.146;2023-03-01T07:45:37;26.40;;;19.13;;
4089;SDS011;2059;48.538;12.146;2023-03-01T07:50:40;25.70;;;18.50;;
4089;SDS011;2059;48.538;12.146;2023-03-01T07:55:42;25.40;;;18.30;;
4089;SDS011;2059;48.538;12.146;2023-03-01T08:00:44;26.90;;;18.00;;
4089;SDS011;2059;48.538;12.146;2023-03-01T08:05:48;25.50;;;18.93;;
4089;SDS011;2059;48.538;12.146;2023-03-01T08:10:50;23.80;;;18.33;;
4089;SDS011;2059;48.538;12.146;2023-03-01T08:15:52;25.13;;;17.93;;
4089;SDS011;2059;48.538;12.146;2023-03-01T08:20:55;27.30;;;18.47;;
4089;SDS011;2059;48.538;12.146;2023-03-01T08:26:03;20.90;;;17.33;;
4089;SDS011;2059;48.538;12.146;2023-03-01T08:31:13;25.50;;;18.70;;
4089;SDS011;2059;48.538;12.146;2023-03-01T08:36:17;24.90;;;19.30;;
4089;SDS011;2059;48.538;12.146;2023-03-01T08:41:20;22.77;;;16.87;;
4089;SDS011;2059;48.538;12.146;2023-03-01T08:46:22;21.07;;;15.13;;
4089;SDS011;2059;48.538;12.146;2023-03-01T08:51:26;19.87;;;15.83;;
4089;SDS011;2059;48.538;12.146;2023-03-01T08:56:29;18.33;;;14.33;;
4089;SDS011;2059;48.538;12.146;2023-03-01T09:01:31;17.03;;;14.47;;
4089;SDS011;2059;48.538;12.146;2023-03-01T09:06:34;20.90;;;15.50;;
4089;SDS011;2059;48.538;12.146;2023-03-01T09:11:36;23.17;;;15.60;;
4089;SDS011;2059;48.538;12.146;2023-03-01T09:16:38;18.40;;;15.80;;
4089;SDS011;2059;48.538;12.146;2023-03-01T09:21:41;19.70;;;15.83;;
4089;SDS011;2059;48.538;12.146;2023-03-01T09:26:55;20.50;;;15.90;;
4089;SDS011;2059;48.538;12.146;2023-03-01T09:31:57;22.20;;;16.33;;
4089;SDS011;2059;48.538;12.146;2023-03-01T09:37:01;20.10;;;16.90;;
4089;SDS011;2059;48.538;12.146;2023-03-01T09:42:03;20.33;;;15.00;;
4089;SDS011;2059;48.538;12.146;2023-03-01T09:47:05;21.83;;;15.90;;
4089;SDS011;2059;48.538;12.146;2023-03-01T09:52:17;19.90;;;15.67;;
4089;SDS011;2059;48.538;12.146;2023-03-01T09:57:26;23.03;;;16.30;;
4089;SDS011;2059;48.538;12.146;2023-03-01T10:02:38;23.30;;;15.93;;
4089;SDS011;2059;48.538;12.146;2023-03-01T10:07:46;19.03;;;15.80;;
4089;SDS011;2059;48.538;12.146;2023-03-01T10:12:55;20.13;;;16.03;;
4089;SDS011;2059;48.538;12.146;2023-03-01T10:18:00;23.93;;;16.20;;
4089;SDS011;2059;48.538;12.146;2023-03-01T10:23:08;19.20;;;15.83;;
4089;SDS011;2059;48.538;12.146;2023-03-01T10:28:14;20.57;;;16.20;;
4089;SDS011;2059;48.538;12.146;2023-03-01T10:33:19;19.63;;;15.53;;
4089;SDS011;2059;48.538;12.146;2023-03-01T10:38:25;24.97;;;16.43;;
4089;SDS011;2059;48.538;12.146;2023-03-01T10:43:30;25.40;;;16.10;;
4089;SDS011;2059;48.538;12.146;2023-03-01T10:48:44;25.70;;;15.83;;
4089;SDS011;2059;48.538;12.146;2023-03-01T10:53:49;22.87;;;16.40;;
4089;SDS011;2059;48.538;12.146;2023-03-01T10:58:58;19.37;;;15.27;;
4089;SDS011;2059;48.538;12.146;2023-03-01T11:04:10;17.97;;;15.10;;
4089;SDS011;2059;48.538;12.146;2023-03-01T11:09:15;20.63;;;16.00;;
4089;SDS011;2059;48.538;12.146;2023-03-01T11:14:21;18.47;;;15.50;;
4089;SDS011;2059;48.538;12.146;2023-03-01T11:19:24;24.10;;;16.57;;
4089;SDS011;2059;48.538;12.146;2023-03-01T11:24:31;20.70;;;16.00;;
4089;SDS011;2059;48.538;12.146;2023-03-01T11:29:38;20.03;;;15.57;;
4089;SDS011;2059;48.538;12.146;2023-03-01T11:34:45;23.40;;;15.10;;
4089;SDS011;2059;48.538;12.146;2023-03-01T11:39:53;21.47;;;16.03;;
4089;SDS011;2059;48.538;12.146;2023-03-01T11:45:00;17.53;;;15.30;;
4089;SDS011;2059;48.538;12.146;2023-03-01T11:55:40;18.47;;;15.90;;
4089;SDS011;2059;48.538;12.146;2023-03-01T12:01:09;20.10;;;16.77;;
4089;SDS011;2059;48.538;12.146;2023-03-01T12:06:29;19.83;;;15.47;;
4089;SDS011;2059;48.538;12.146;2023-03-01T12:11:46;20.07;;;16.23;;
4089;SDS011;2059;48.538;12.146;2023-03-01T12:17:04;14.90;;;12.83;;
4089;SDS011;2059;48.538;12.146;2023-03-01T12:22:20;17.70;;;15.80;;
4089;SDS011;2059;48.538;12.146;2023-03-01T12:27:35;16.60;;;14.60;;
4089;SDS011;2059;48.538;12.146;2023-03-01T12:32:50;19.10;;;15.47;;
4089;SDS011;2059;48.538;12.146;2023-03-01T12:38:05;20.33;;;15.73;;
4089;SDS011;2059;48.538;12.146;2023-03-01T12:43:26;17.63;;;14.83;;
4089;SDS011;2059;48.538;12.146;2023-03-01T12:48:40;18.50;;;15.80;;
4089;SDS011;2059;48.538;12.146;2023-03-01T12:53:49;18.60;;;14.30;;
4089;SDS011;2059;48.538;12.146;2023-03-01T12:58:55;16.93;;;14.90;;
4089;SDS011;2059;48.538;12.146;2023-03-01T13:04:07;16.50;;;14.20;;
4089;SDS011;2059;48.538;12.146;2023-03-01T13:09:18;15.83;;;13.60;;
4089;SDS011;2059;48.538;12.146;2023-03-01T13:14:38;16.83;;;13.60;;
4089;SDS011;2059;48.538;12.146;2023-03-01T13:19:55;19.83;;;13.93;;
4089;SDS011;2059;48.538;12.146;2023-03-01T13:25:01;15.20;;;13.50;;
4089;SDS011;2059;48.538;12.146;2023-03-01T13:35:42;18.77;;;13.03;;
4089;SDS011;2059;48.538;12.146;2023-03-01T13:40:57;16.40;;;13.27;;
4089;SDS011;2059;48.538;12.146;2023-03-01T13:46:07;15.97;;;13.13;;
4089;SDS011;2059;48.538;12.146;2023-03-01T13:51:12;18.20;;;13.10;;
4089;SDS011;2059;48.538;12.146;2023-03-01T13:56:15;27.00;;;16.70;;
4089;SDS011;2059;48.538;12.146;2023-03-01T14:01:23;16.43;;;13.27;;
4089;SDS011;2059;48.538;12.146;2023-03-01T14:06:27;14.50;;;12.40;;
4089;SDS011;2059;48.538;12.146;2023-03-01T14:16:58;14.60;;;12.63;;
4089;SDS011;2059;48.538;12.146;2023-03-01T14:22:12;14.67;;;12.60;;
4089;SDS011;2059;48.538;12.146;2023-03-01T14:27:18;13.47;;;11.63;;
4089;SDS011;2059;48.538;12.146;2023-03-01T14:32:24;18.70;;;12.47;;
4089;SDS011;2059;48.538;12.146;2023-03-01T14:37:27;12.73;;;10.70;;
4089;SDS011;2059;48.538;12.146;2023-03-01T14:42:33;14.67;;;11.67;;
4089;SDS011;2059;48.538;12.146;2023-03-01T14:47:38;17.93;;;11.90;;
4089;SDS011;2059;48.538;12.146;2023-03-01T14:52:41;13.97;;;11.20;;
4089;SDS011;2059;48.538;12.146;2023-03-01T14:57:46;15.93;;;11.10;;
4089;SDS011;2059;48.538;12.146;2023-03-01T15:02:51;12.17;;;10.90;;
4089;SDS011;2059;48.538;12.146;2023-03-01T15:07:54;14.40;;;10.10;;
4089;SDS011;2059;48.538;12.146;2023-03-01T15:13:09;16.33;;;10.67;;
4089;SDS011;2059;48.538;12.146;2023-03-01T15:18:15;15.17;;;12.77;;
4089;SDS011;2059;48.538;12.146;2023-03-01T15:23:23;15.90;;;12.37;;
4089;SDS011;2059;48.538;12.146;2023-03-01T15:28:27;19.77;;;14.17;;
4089;SDS011;2059;48.538;12.146;2023-03-01T15:33:34;16.20;;;14.50;;
4089;SDS011;2059;48.538;12.146;2023-03-01T15:38:50;17.50;;;13.13;;
4089;SDS011;2059;48.538;12.146;2023-03-01T15:43:54;18.37;;;15.50;;
4089;SDS011;2059;48.538;12.146;2023-03-01T15:48:58;16.17;;;13.47;;
4089;SDS011;2059;48.538;12.146;2023-03-01T15:54:03;17.87;;;15.97;;
4089;SDS011;2059;48.538;12.146;2023-03-01T15:59:08;17.90;;;15.40;;
4089;SDS011;2059;48.538;12.146;2023-03-01T16:04:15;16.17;;;13.30;;
4089;SDS011;2059;48.538;12.146;2023-03-01T16:09:22;17.37;;;14.23;;
4089;SDS011;2059;48.538;12.146;2023-03-01T16:14:25;19.63;;;14.23;;
4089;SDS011;2059;48.538;12.146;2023-03-01T16:19:28;15.57;;;13.87;;
4089;SDS011;2059;48.538;12.146;2023-03-01T16:24:30;17.67;;;15.10;;
4089;SDS011;2059;48.538;12.146;2023-03-01T16:29:31;20.10;;;15.73;;
4089;SDS011;2059;48.538;12.146;2023-03-01T16:34:35;22.77;;;17.47;;
4089;SDS011;2059;48.538;12.146;2023-03-01T16:39:37;25.77;;;19.57;;
4089;SDS011;2059;48.538;12.146;2023-03-01T16:44:39;25.70;;;19.00;;
4089;SDS011;2059;48.538;12.146;2023-03-01T16:49:42;27.77;;;18.17;;
4089;SDS011;2059;48.538;12.146;2023-03-01T16:54:44;25.50;;;19.87;;
4089;SDS011;2059;48.538;12.146;2023-03-01T16:59:46;25.90;;;19.00;;
4089;SDS011;2059;48.538;12.146;2023-03-01T17:04:52;24.23;;;19.13;;
4089;SDS011;2059;48.538;12.146;2023-03-01T17:09:54;24.33;;;18.40;;
4089;SDS011;2059;48.538;12.146;2023-03-01T17:14:56;23.83;;;19.40;;
4089;SDS011;2059;48.538;12.146;2023-03-01T17:19:59;24.13;;;19.73;;
4089;SDS011;2059;48.538;12.146;2023-03-01T17:25:01;23.73;;;18.97;;
4089;SDS011;2059;48.538;12.146;2023-03-01T17:30:03;24.27;;;18.40;;
4089;SDS011;2059;48.538;12.146;2023-03-01T17:35:08;25.37;;;20.20;;
4089;SDS011;2059;48.538;12.146;2023-03-01T17:40:11;29.30;;;19.70;;
4089;SDS011;2059;48.538;12.146;2023-03-01T17:45:13;29.30;;;20.60;;
4089;SDS011;2059;48.538;12.146;2023-03-01T17:50:17;28.37;;;21.47;;
4089;SDS011;2059;48.538;12.146;2023-03-01T17:55:18;28.67;;;20.20;;
4089;SDS011;2059;48.538;12.146;2023-03-01T18:00:21;33.13;;;21.67;;
4089;SDS011;2059;48.538;12.146;2023-03-01T18:05:25;24.10;;;19.33;;
4089;SDS011;2059;48.538;12.146;2023-03-01T18:10:27;20.93;;;16.97;;
4089;SDS011;2059;48.538;12.146;2023-03-01T18:15:29;20.40;;;15.17;;
4089;SDS011;2059;48.538;12.146;2023-03-01T18:20:32;22.03;;;15.63;;
4089;SDS011;2059;48.538;12.146;2023-03-01T18:25:37;17.07;;;13.40;;
4089;SDS011;2059;48.538;12.146;2023-03-01T18:30:39;18.57;;;13.13;;
4089;SDS011;2059;48.538;12.146;2023-03-01T18:35:43;15.60;;;12.73;;
4089;SDS011;2059;48.538;12.146;2023-03-01T18:40:45;20.60;;;13.37;;
4089;SDS011;2059;48.538;12.146;2023-03-01T18:45:47;16.93;;;11.80;;
4089;SDS011;2059;48.538;12.146;2023-03-01T18:50:50;17.13;;;14.70;;
4089;SDS011;2059;48.538;12.146;2023-03-01T18:55:52;18.70;;;14.23;;
4089;SDS011;2059;48.538;12.146;2023-03-01T19:00:59;24.67;;;12.83;;
4089;SDS011;2059;48.538;12.146;2023-03-01T19:06:04;16.50;;;12.10;;
4089;SDS011;2059;48.538;12.146;2023-03-01T19:11:06;16.73;;;12.80;;
4089;SDS011;2059;48.538;12.146;2023-03-01T19:16:09;14.10;;;11.77;;
4089;SDS011;2059;48.538;12.146;2023-03-01T19:21:14;16.43;;;12.00;;
4089;SDS011;2059;48.538;12.146;2023-03-01T19:26:18;18.93;;;11.97;;
4089;SDS011;2059;48.538;12.146;2023-03-01T19:31:21;15.60;;;12.20;;
4089;SDS011;2059;48.538;12.146;2023-03-01T19:36:25;18.83;;;14.53;;
4089;SDS011;2059;48.538;12.146;2023-03-01T19:41:32;22.70;;;14.87;;
4089;SDS011;2059;48.538;12.146;2023-03-01T19:46:34;22.70;;;13.60;;
4089;SDS011;2059;48.538;12.146;2023-03-01T19:51:37;18.63;;;13.83;;
4089;SDS011;2059;48.538;12.146;2023-03-01T19:56:39;17.53;;;12.97;;
4089;SDS011;2059;48.538;12.146;2023-03-01T20:01:41;16.20;;;11.70;;
4089;SDS011;2059;48.538;12.146;2023-03-01T20:06:44;14.73;;;11.90;;
4089;SDS011;2059;48.538;12.146;2023-03-01T20:11:47;17.30;;;12.07;;
4089;SDS011;2059;48.538;12.146;2023-03-01T20:16:49;19.23;;;12.60;;
4089;SDS011;2059;48.538;12.146;2023-03-01T20:21:53;20.90;;;13.40;;
4089;SDS011;2059;48.538;12.146;2023-03-01T20:26:54;17.70;;;13.30;;
4089;SDS011;2059;48.538;12.146;2023-03-01T20:31:56;18.13;;;13.30;;
4089;SDS011;2059;48.538;12.146;2023-03-01T20:36:59;21.17;;;13.30;;
4089;SDS011;2059;48.538;12.146;2023-03-01T20:42:01;20.97;;;13.10;;
4089;SDS011;2059;48.538;12.146;2023-03-01T20:47:03;16.50;;;13.83;;
4089;SDS011;2059;48.538;12.146;2023-03-01T20:52:07;20.07;;;14.00;;
4089;SDS011;2059;48.538;12.146;2023-03-01T20:57:08;19.13;;;13.97;;
4089;SDS011;2059;48.538;12.146;2023-03-01T21:02:10;20.73;;;14.67;;
4089;SDS011;2059;48.538;12.146;2023-03-01T21:07:13;19.80;;;14.63;;
4089;SDS011;2059;48.538;12.146;2023-03-01T21:12:15;20.27;;;14.83;;
4089;SDS011;2059;48.538;12.146;2023-03-01T21:17:17;18.63;;;14.27;;
4089;SDS011;2059;48.538;12.146;2023-03-01T21:22:21;18.53;;;14.07;;
4089;SDS011;2059;48.538;12.146;2023-03-01T21:27:23;20.20;;;13.90;;
4089;SDS011;2059;48.538;12.146;2023-03-01T21:32:25;21.07;;;15.27;;
4089;SDS011;2059;48.538;12.146;2023-03-01T21:37:28;22.60;;;16.00;;
4089;SDS011;2059;48.538;12.146;2023-03-01T21:42:30;24.50;;;15.97;;
4089;SDS011;2059;48.538;12.146;2023-03-01T21:47:34;21.77;;;16.33;;
4089;SDS011;2059;48.538;12.146;2023-03-01T21:52:37;27.33;;;16.17;;
4089;SDS011;2059;48.538;12.146;2023-03-01T21:57:38;22.00;;;17.20;;
4089;SDS011;2059;48.538;12.146;2023-03-01T22:02:42;23.17;;;16.20;;
4089;SDS011;2059;48.538;12.146;2023-03-01T22:07:45;24.30;;;17.80;;
4089;SDS011;2059;48.538;12.146;2023-03-01T22:12:47;24.93;;;17.13;;
4089;SDS011;2059;48.538;12.146;2023-03-01T22:17:49;21.27;;;15.00;;
4089;SDS011;2059;48.538;12.146;2023-03-01T22:22:52;22.43;;;15.57;;
4089;SDS011;2059;48.538;12.146;2023-03-01T22:27:54;23.70;;;17.33;;
4089;SDS011;2059;48.538;12.146;2023-03-01T22:32:56;22.30;;;15.47;;
4089;SDS011;2059;48.538;12.146;2023-03-01T22:37:59;21.47;;;14.67;;
4089;SDS011;2059;48.538;12.146;2023-03-01T22:43:01;23.67;;;17.30;;
4089;SDS011;2059;48.538;12.146;2023-03-01T22:48:03;27.03;;;16.57;;
4089;SDS011;2059;48.538;12.146;2023-03-01T22:53:07;24.90;;;18.07;;
4089;SDS011;2059;48.538;12.146;2023-03-01T22:58:09;27.40;;;18.90;;
4089;SDS011;2059;48.538;12.146;2023-03-01T23:03:11;27.00;;;18.47;;
4089;SDS011;2059;48.538;12.146;2023-03-01T23:08:14;26.27;;;18.00;;
4089;SDS011;2059;48.538;12.146;2023-03-01T23:13:15;25.23;;;16.90;;
4089;SDS011;2059;48.538;12.146;2023-03-01T23:18:17;24.90;;;17.23;;
4089;SDS011;2059;48.538;12.146;2023-03-01T23:23:20;21.70;;;15.80;;
4089;SDS011;2059;48.538;12.146;2023-03-01T23:28:22;22.50;;;16.07;;
4089;SDS011;2059;48.538;12.146;2023-03-01T23:33:24;31.37;;;17.27;;
4089;SDS011;2059;48.538;12.146;2023-03-01T23:38:29;26.47;;;18.30;;
4089;SDS011;2059;48.538;12.146;2023-03-01T23:43:30;22.43;;;16.67;;
4089;SDS011;2059;48.538;12.146;2023-03-01T23:48:32;26.90;;;19.27;;
4089;SDS011;2059;48.538;12.146;2023-03-01T23:53:37;27.17;;;18.70;;
4089;SDS011;2059;48.538;12.146;2023-03-01T23:58:41;28.20;;;18.67;;
